createdAt,value
2022-08-08T00:02:30.878Z,2.42
2022-08-08T00:04:53.164Z,1.77
2022-08-08T00:07:30.917Z,1.83
2022-08-08T00:10:07.420Z,2.00
2022-08-08T00:12:48.379Z,1.90
2022-08-08T00:15:55.856Z,1.95
2022-08-08T00:18:27.925Z,2.00
2022-08-08T00:20:58.283Z,1.85
2022-08-08T00:23:42.809Z,1.70
2022-08-08T00:26:21.624Z,2.05
2022-08-08T00:29:02.502Z,1.83
2022-08-08T00:32:16.383Z,1.77
2022-08-08T00:35:04.530Z,1.88
2022-08-08T00:37:57.406Z,1.95
2022-08-08T00:41:11.593Z,2.20
2022-08-08T00:43:58.797Z,2.00
2022-08-08T00:47:14.302Z,1.85
2022-08-08T00:50:31.829Z,1.88
2022-08-08T00:53:15.661Z,2.10
2022-08-08T00:56:26.936Z,1.88
2022-08-08T00:59:44.380Z,2.08
2022-08-08T01:04:02.349Z,1.77
2022-08-08T01:06:44.411Z,2.00
2022-08-08T01:09:56.744Z,1.95
2022-08-08T01:13:17.730Z,2.00
2022-08-08T01:16:45.919Z,1.90
2022-08-08T01:20:02.581Z,1.95
2022-08-08T01:22:50.910Z,1.98
2022-08-08T01:26:13.285Z,1.90
2022-08-08T01:29:35.356Z,1.95
2022-08-08T01:32:36.303Z,1.77
2022-08-08T01:35:48.380Z,1.95
2022-08-08T01:38:53.613Z,1.88
2022-08-08T01:41:37.998Z,1.90
2022-08-08T01:48:14.444Z,1.80
2022-08-08T01:50:07.936Z,2.10
2022-08-08T01:54:18.291Z,1.95
2022-08-08T01:56:28.236Z,1.95
2022-08-08T01:58:51.073Z,1.85
2022-08-08T02:01:54.749Z,2.13
2022-08-08T02:04:28.169Z,2.15
2022-08-08T02:07:06.411Z,2.03
2022-08-08T02:10:11.499Z,2.45
2022-08-08T02:12:52.944Z,1.88
2022-08-08T02:15:34.901Z,1.80
2022-08-08T02:18:14.147Z,1.95
2022-08-08T02:21:13.367Z,2.13
2022-08-08T02:23:54.547Z,1.90
2022-08-08T02:26:29.723Z,1.98
2022-08-08T02:29:21.578Z,1.63
2022-08-08T02:32:22.891Z,1.58
2022-08-08T02:35:35.822Z,2.35
2022-08-08T02:38:40.897Z,1.80
2022-08-08T02:42:05.917Z,2.05
2022-08-08T02:44:57.795Z,2.00
2022-08-08T02:48:09.326Z,2.25
2022-08-08T02:51:13.689Z,2.20
2022-08-08T02:54:38.325Z,2.70
2022-08-08T02:57:58.629Z,2.20
2022-08-08T03:01:15.182Z,2.30
2022-08-08T03:05:03.522Z,1.98
2022-08-08T03:08:04.994Z,1.88
2022-08-08T03:11:25.789Z,2.35
2022-08-08T03:16:00.545Z,2.45
2022-08-08T03:17:25.746Z,2.10
2022-08-08T03:20:10.542Z,2.13
2022-08-08T03:22:50.975Z,2.50
2022-08-08T03:25:35.940Z,2.10
2022-08-08T03:28:10.743Z,2.13
2022-08-08T03:30:48.818Z,1.88
2022-08-08T03:33:55.766Z,1.70
2022-08-08T03:36:19.570Z,2.05
2022-08-08T03:38:58.299Z,2.30
2022-08-08T03:42:27.794Z,2.05
2022-08-08T03:44:25.699Z,2.13
2022-08-08T03:49:59.115Z,1.80
2022-08-08T03:52:16.405Z,2.30
2022-08-08T03:55:01.944Z,1.98
2022-08-08T03:58:32.954Z,2.25
2022-08-08T04:00:27.142Z,2.05
2022-08-08T04:03:06.381Z,2.03
2022-08-08T04:05:49.570Z,2.47
2022-08-08T04:08:33.383Z,2.58
2022-08-08T04:11:10.909Z,2.47
2022-08-08T04:14:03.014Z,2.13
2022-08-08T04:16:38.814Z,2.10
2022-08-08T04:19:23.968Z,2.17
2022-08-08T04:21:58.268Z,2.33
2022-08-08T04:24:30.965Z,2.13
2022-08-08T04:29:38.959Z,2.28
2022-08-08T04:32:30.970Z,2.60
2022-08-08T04:35:13.169Z,2.38
2022-08-08T04:37:43.454Z,2.20
2022-08-08T04:40:18.466Z,2.72
2022-08-08T04:42:56.721Z,2.17
2022-08-08T04:45:40.176Z,2.63
2022-08-08T04:48:09.415Z,2.15
2022-08-08T04:50:40.395Z,2.03
2022-08-08T04:54:36.944Z,2.38
2022-08-08T04:56:06.389Z,2.58
2022-08-08T04:58:38.231Z,2.75
2022-08-08T05:01:11.162Z,3.75
2022-08-08T05:04:08.957Z,3.05
2022-08-08T05:06:36.274Z,2.10
2022-08-08T05:09:07.582Z,2.15
2022-08-08T05:11:40.574Z,1.98
2022-08-08T05:14:14.776Z,2.50
2022-08-08T05:16:54.431Z,2.22
2022-08-08T05:20:10.795Z,4.50
2022-08-08T05:22:20.180Z,2.70
2022-08-08T05:24:50.727Z,4.55
2022-08-08T05:27:22.471Z,2.13
2022-08-08T05:29:54.900Z,2.60
2022-08-08T05:32:36.424Z,2.88
2022-08-08T05:35:06.972Z,2.50
2022-08-08T05:37:53.128Z,2.00
2022-08-08T05:40:30.219Z,2.60
2022-08-08T05:43:38.804Z,3.25
2022-08-08T05:46:02.961Z,2.30
2022-08-08T05:48:34.709Z,2.10
2022-08-08T05:51:14.834Z,2.38
2022-08-08T05:54:24.291Z,2.58
2022-08-08T05:56:47.464Z,2.13
2022-08-08T05:59:59.260Z,2.90
2022-08-08T06:02:34.452Z,2.22
2022-08-08T06:05:33.241Z,2.40
2022-08-08T06:08:02.132Z,2.40
2022-08-08T06:10:34.759Z,2.25
2022-08-08T06:13:07.535Z,2.28
2022-08-08T06:15:51.167Z,2.13
2022-08-08T06:18:30.208Z,2.30
2022-08-08T06:21:03.641Z,2.30
2022-08-08T06:23:53.099Z,2.33
2022-08-08T06:26:44.285Z,2.20
2022-08-08T06:29:56.700Z,2.97
2022-08-08T06:32:20.670Z,2.47
2022-08-08T06:36:03.906Z,2.53
2022-08-08T06:37:55.673Z,2.40
2022-08-08T06:40:30.213Z,2.65
2022-08-08T06:43:06.394Z,2.30
2022-08-08T06:45:58.683Z,2.20
2022-08-08T06:48:27.301Z,3.20
2022-08-08T06:50:59.314Z,2.25
2022-08-08T06:53:39.242Z,2.08
2022-08-08T06:56:11.475Z,2.50
2022-08-08T06:58:44.889Z,2.80
2022-08-08T07:02:18.102Z,3.03
2022-08-08T07:04:41.629Z,3.20
2022-08-08T07:07:10.550Z,2.70
2022-08-08T07:09:59.427Z,2.80
2022-08-08T07:12:41.103Z,2.97
2022-08-08T07:15:23.386Z,3.10
2022-08-08T07:18:35.753Z,2.25
2022-08-08T07:21:02.144Z,2.40
2022-08-08T07:24:01.026Z,2.83
2022-08-08T07:26:35.628Z,2.10
2022-08-08T07:29:07.967Z,2.83
2022-08-08T07:31:37.561Z,2.65
2022-08-08T07:34:08.629Z,2.30
2022-08-08T07:36:48.069Z,2.72
2022-08-08T07:39:29.368Z,2.80
2022-08-08T07:42:05.110Z,2.60
2022-08-08T07:44:40.194Z,2.75
2022-08-08T07:47:11.567Z,2.50
2022-08-08T07:49:41.533Z,3.03
2022-08-08T07:52:23.049Z,2.63
2022-08-08T07:55:04.054Z,2.60
2022-08-08T07:57:48.624Z,2.22
2022-08-08T08:00:19.393Z,2.90
2022-08-08T08:03:07.160Z,2.33
2022-08-08T08:05:43.257Z,2.43
2022-08-08T08:08:20.402Z,2.17
2022-08-08T08:10:56.729Z,2.30
2022-08-08T08:13:42.795Z,2.38
2022-08-08T08:16:24.688Z,2.10
2022-08-08T08:18:59.923Z,2.30
2022-08-08T08:21:52.879Z,2.30
2022-08-08T08:24:35.160Z,2.40
2022-08-08T08:27:09.295Z,1.98
2022-08-08T08:29:40.141Z,2.30
2022-08-08T08:32:11.864Z,2.40
2022-08-08T08:34:48.456Z,1.92
2022-08-08T08:37:20.462Z,2.10
2022-08-08T08:40:02.410Z,1.88
2022-08-08T08:42:39.124Z,1.85
2022-08-08T08:45:23.270Z,2.20
2022-08-08T08:48:01.384Z,1.58
2022-08-08T08:50:36.253Z,2.00
2022-08-08T08:53:54.695Z,1.90
2022-08-08T08:56:08.791Z,2.00
2022-08-08T08:58:49.949Z,1.70
2022-08-08T09:01:45.367Z,1.77
2022-08-08T09:04:31.124Z,1.63
2022-08-08T09:07:12.778Z,1.85
2022-08-08T09:09:48.174Z,1.58
2022-08-08T09:12:28.008Z,1.67
2022-08-08T09:15:00.785Z,1.55
2022-08-08T09:17:41.973Z,1.63
2022-08-08T09:21:57.186Z,1.40
2022-08-08T09:23:11.553Z,1.42
2022-08-08T09:25:54.688Z,1.80
2022-08-08T09:28:37.338Z,1.70
2022-08-08T09:31:15.541Z,1.70
2022-08-08T09:34:15.823Z,1.80
2022-08-08T09:36:51.859Z,1.45
2022-08-08T09:39:44.025Z,1.80
2022-08-08T09:42:22.086Z,1.77
2022-08-08T09:45:03.900Z,1.58
2022-08-08T09:48:04.054Z,1.65
2022-08-08T09:50:32.493Z,1.40
2022-08-08T09:53:22.269Z,1.30
2022-08-08T09:56:05.165Z,2.00
2022-08-08T09:58:41.724Z,1.92
2022-08-08T10:01:15.163Z,1.50
2022-08-08T10:04:04.950Z,1.65
2022-08-08T10:06:35.989Z,1.65
2022-08-08T10:09:09.323Z,2.10
2022-08-08T10:12:26.664Z,1.60
2022-08-08T10:14:39.546Z,1.73
2022-08-08T10:17:56.443Z,1.33
2022-08-08T10:20:00.943Z,1.52
2022-08-08T10:22:32.061Z,1.40
2022-08-08T10:25:05.374Z,1.40
2022-08-08T10:30:16.230Z,1.50
2022-08-08T10:33:00.356Z,2.00
2022-08-08T10:36:20.538Z,1.73
2022-08-08T10:38:21.406Z,1.80
2022-08-08T10:40:53.941Z,1.60
2022-08-08T10:43:23.076Z,1.67
2022-08-08T10:45:56.301Z,2.03
2022-08-08T10:48:37.189Z,1.65
2022-08-08T10:51:14.845Z,1.70
2022-08-08T10:53:57.444Z,1.45
2022-08-08T10:56:27.593Z,1.75
2022-08-08T10:59:01.058Z,1.75
2022-08-08T11:01:30.170Z,1.80
2022-08-08T11:04:04.542Z,1.80
2022-08-08T11:06:35.728Z,1.65
2022-08-08T11:09:09.738Z,1.85
2022-08-08T11:12:05.067Z,1.75
2022-08-08T11:14:33.156Z,1.55
2022-08-08T11:17:04.520Z,1.70
2022-08-08T11:19:37.321Z,1.90
2022-08-08T11:22:09.716Z,1.90
2022-08-08T11:24:38.740Z,1.70
2022-08-08T11:27:19.810Z,1.70
2022-08-08T11:30:19.909Z,1.73
2022-08-08T11:32:47.345Z,1.67
2022-08-08T11:35:27.998Z,1.83
2022-08-08T11:38:39.389Z,1.58
2022-08-08T11:40:56.264Z,1.48
2022-08-08T11:43:38.621Z,1.70
2022-08-08T11:48:48.179Z,1.85
2022-08-08T11:51:29.947Z,1.77
2022-08-08T11:54:09.722Z,1.60
2022-08-08T11:56:56.501Z,1.50
2022-08-08T11:59:58.524Z,1.42
2022-08-08T12:02:41.204Z,1.83
2022-08-08T12:05:12.376Z,1.42
2022-08-08T12:07:49.715Z,2.00
2022-08-08T12:10:23.063Z,1.58
2022-08-08T12:13:00.823Z,1.83
2022-08-08T12:15:30.700Z,1.92
2022-08-08T12:18:16.080Z,1.80
2022-08-08T12:20:49.372Z,1.60
2022-08-08T12:23:32.277Z,2.00
2022-08-08T12:26:17.169Z,1.75
2022-08-08T12:28:57.141Z,1.67
2022-08-08T12:31:39.459Z,1.65
2022-08-08T12:34:43.625Z,1.80
2022-08-08T12:37:19.791Z,1.70
2022-08-08T12:40:00.096Z,1.60
2022-08-08T12:42:33.934Z,2.33
2022-08-08T12:45:20.219Z,1.60
2022-08-08T12:48:10.571Z,2.28
2022-08-08T12:50:50.835Z,1.70
2022-08-08T12:53:28.395Z,2.15
2022-08-08T12:56:19.408Z,2.10
2022-08-08T12:58:54.217Z,1.40
2022-08-08T13:01:36.893Z,1.67
2022-08-08T13:04:18.722Z,1.83
2022-08-08T13:06:55.636Z,1.83
2022-08-08T13:09:33.178Z,1.50
2022-08-08T13:12:24.427Z,1.30
2022-08-08T13:14:53.579Z,1.73
2022-08-08T13:18:07.825Z,1.60
2022-08-08T13:20:15.483Z,1.80
2022-08-08T13:22:46.572Z,1.60
2022-08-08T13:25:16.843Z,1.50
2022-08-08T13:27:47.509Z,1.60
2022-08-08T13:30:25.990Z,1.73
2022-08-08T13:32:56.882Z,1.45
2022-08-08T13:35:29.446Z,1.70
2022-08-08T13:38:08.377Z,1.80
2022-08-08T13:43:09.798Z,1.50
2022-08-08T13:45:40.939Z,2.10
2022-08-08T13:48:14.964Z,2.00
2022-08-08T13:50:50.905Z,1.92
2022-08-08T13:53:28.007Z,1.52
2022-08-08T13:56:01.129Z,1.40
2022-08-08T13:58:29.665Z,1.55
2022-08-08T14:00:59.486Z,1.80
2022-08-08T14:03:53.316Z,1.83
2022-08-08T14:06:33.144Z,1.52
2022-08-08T14:09:25.192Z,1.75
2022-08-08T14:11:51.026Z,2.22
2022-08-08T14:14:20.985Z,1.80
2022-08-08T14:16:57.412Z,1.50
2022-08-08T14:19:58.036Z,1.50
2022-08-08T14:22:24.660Z,1.97
2022-08-08T14:24:56.197Z,1.55
2022-08-08T14:27:30.465Z,1.58
2022-08-08T14:30:04.030Z,1.73
2022-08-08T14:32:53.093Z,1.55
2022-08-08T14:35:23.265Z,2.15
2022-08-08T14:37:59.943Z,1.40
2022-08-08T14:40:30.305Z,1.42
2022-08-08T14:42:59.809Z,1.58
2022-08-08T14:45:47.087Z,1.52
2022-08-08T14:48:34.276Z,1.40
2022-08-08T14:51:06.579Z,1.40
2022-08-08T14:53:55.531Z,1.55
2022-08-08T14:56:25.274Z,2.00
2022-08-08T14:58:54.490Z,1.30
2022-08-08T15:01:40.880Z,1.30
2022-08-08T15:04:12.600Z,1.77
2022-08-08T15:06:42.611Z,1.75
2022-08-08T15:09:12.640Z,1.92
2022-08-08T15:11:45.998Z,1.75
2022-08-08T15:14:17.434Z,1.52
2022-08-08T15:16:48.740Z,1.40
2022-08-08T15:19:18.595Z,1.55
2022-08-08T15:21:48.150Z,1.77
2022-08-08T15:24:17.015Z,1.40
2022-08-08T15:26:52.277Z,1.75
2022-08-08T15:29:22.461Z,1.58
2022-08-08T15:32:19.991Z,1.50
2022-08-08T15:34:41.918Z,1.58
2022-08-08T15:37:10.816Z,1.50
2022-08-08T15:39:41.423Z,1.83
2022-08-08T15:42:17.962Z,1.40
2022-08-08T15:44:58.453Z,1.70
2022-08-08T15:47:26.434Z,1.65
2022-08-08T15:49:55.822Z,1.90
2022-08-08T15:52:25.107Z,1.50
2022-08-08T15:54:53.859Z,1.88
2022-08-08T15:57:23.651Z,1.85
2022-08-08T16:00:25.431Z,1.73
2022-08-08T16:02:43.897Z,1.88
2022-08-08T16:05:14.696Z,1.65
2022-08-08T16:07:51.237Z,1.83
2022-08-08T16:13:10.887Z,2.13
2022-08-08T16:13:33.428Z,1.67
2022-08-08T16:16:09.347Z,1.95
2022-08-08T16:18:57.300Z,1.52
2022-08-08T16:21:30.627Z,2.10
2022-08-08T16:24:00.465Z,3.22
2022-08-08T16:26:34.661Z,1.85
2022-08-08T16:29:08.741Z,2.15
2022-08-08T16:31:40.883Z,1.63
2022-08-08T16:34:10.023Z,1.55
2022-08-08T16:36:40.662Z,1.60
2022-08-08T16:39:16.863Z,1.60
2022-08-08T16:42:01.251Z,1.95
2022-08-08T16:44:34.176Z,2.00
2022-08-08T16:47:40.148Z,1.95
2022-08-08T16:50:14.062Z,1.88
2022-08-08T16:55:13.926Z,1.60
2022-08-08T16:55:55.572Z,1.40
2022-08-08T16:58:26.222Z,1.52
2022-08-08T17:00:59.038Z,1.85
2022-08-08T17:04:00.843Z,1.73
2022-08-08T17:06:36.796Z,2.03
2022-08-08T17:09:06.182Z,1.70
2022-08-08T17:11:38.735Z,1.67
2022-08-08T17:14:18.775Z,1.60
2022-08-08T17:16:57.400Z,1.98
2022-08-08T17:19:27.294Z,1.27
2022-08-08T17:21:55.351Z,1.98
2022-08-08T17:24:28.221Z,1.73
2022-08-08T17:26:59.000Z,1.70
2022-08-08T17:29:27.512Z,1.98
2022-08-08T17:31:57.716Z,1.83
2022-08-08T17:34:54.083Z,2.00
2022-08-08T17:37:14.485Z,1.67
2022-08-08T17:40:04.163Z,1.55
2022-08-08T17:42:31.986Z,1.88
2022-08-08T17:45:00.406Z,1.75
2022-08-08T17:47:40.512Z,1.55
2022-08-08T17:50:10.525Z,1.90
2022-08-08T17:52:43.260Z,1.88
2022-08-08T17:56:05.974Z,1.45
2022-08-08T17:58:01.956Z,1.83
2022-08-08T18:00:31.361Z,2.05
2022-08-08T18:03:08.436Z,1.60
2022-08-08T18:05:47.983Z,1.73
2022-08-08T18:08:38.274Z,1.98
2022-08-08T18:11:14.622Z,2.10
2022-08-08T18:13:45.208Z,2.25
2022-08-08T18:16:20.769Z,1.92
2022-08-08T18:18:54.030Z,1.67
2022-08-08T18:22:00.430Z,1.55
2022-08-08T18:24:19.708Z,1.60
2022-08-08T18:26:55.917Z,1.95
2022-08-08T18:29:34.109Z,2.00
2022-08-08T18:32:04.315Z,1.77
2022-08-08T18:34:33.925Z,1.88
2022-08-08T18:37:06.578Z,2.08
2022-08-08T18:39:38.351Z,1.83
2022-08-08T18:42:15.861Z,1.88
2022-08-08T18:44:54.899Z,2.15
2022-08-08T18:47:24.935Z,1.77
2022-08-08T18:49:58.365Z,2.05
2022-08-08T18:52:29.874Z,2.38
2022-08-08T18:55:00.073Z,1.80
2022-08-08T18:57:41.033Z,1.90
2022-08-08T19:02:55.930Z,2.10
2022-08-08T19:05:32.054Z,2.63
2022-08-08T19:08:24.708Z,2.40
2022-08-08T19:10:58.442Z,2.17
2022-08-08T19:13:52.545Z,2.03
2022-08-08T19:16:19.121Z,2.10
2022-08-08T19:18:53.267Z,2.30
2022-08-08T19:21:30.305Z,2.60
2022-08-08T19:24:01.019Z,2.45
2022-08-08T19:26:34.889Z,1.98
2022-08-08T19:29:04.988Z,2.40
2022-08-08T19:31:36.373Z,2.10
2022-08-08T19:34:35.858Z,2.30
2022-08-08T19:36:58.425Z,2.17
2022-08-08T19:39:34.996Z,2.55
2022-08-08T19:42:06.749Z,2.20
2022-08-08T19:44:45.410Z,2.45
2022-08-08T19:47:15.804Z,2.13
2022-08-08T19:50:00.393Z,2.50
2022-08-08T19:52:35.156Z,2.20
2022-08-08T19:55:09.375Z,2.10
2022-08-08T19:57:40.650Z,2.20
2022-08-08T20:00:29.060Z,2.40
2022-08-08T20:03:01.140Z,2.08
2022-08-08T20:06:14.743Z,2.40
2022-08-08T20:08:29.835Z,2.20
2022-08-08T20:11:00.009Z,2.30
2022-08-08T20:14:31.420Z,2.45
2022-08-08T20:16:18.331Z,2.33
2022-08-08T20:18:52.578Z,2.30
2022-08-08T20:21:25.142Z,2.22
2022-08-08T20:23:58.012Z,2.53
2022-08-08T20:26:30.037Z,2.20
2022-08-08T20:29:02.242Z,2.20
2022-08-08T20:32:06.869Z,2.20
2022-08-08T20:34:30.446Z,2.13
2022-08-08T20:37:00.699Z,2.40
2022-08-08T20:39:39.659Z,2.22
2022-08-08T20:42:17.234Z,2.30
2022-08-08T20:44:45.334Z,2.38
2022-08-08T20:47:22.913Z,2.28
2022-08-08T20:49:54.064Z,2.13
2022-08-08T20:52:22.654Z,2.80
2022-08-08T20:54:51.559Z,3.22
2022-08-08T20:57:21.176Z,2.53
2022-08-08T20:59:49.613Z,2.50
2022-08-08T21:02:25.387Z,2.60
2022-08-08T21:04:57.429Z,2.60
2022-08-08T21:07:30.962Z,2.58
2022-08-08T21:10:16.378Z,2.40
2022-08-08T21:12:46.319Z,2.45
2022-08-08T21:16:03.865Z,2.30
2022-08-08T21:18:10.318Z,2.55
2022-08-08T21:20:40.037Z,2.88
2022-08-08T21:23:13.057Z,2.67
2022-08-08T21:25:43.824Z,2.50
2022-08-08T21:28:15.854Z,2.72
2022-08-08T21:30:49.627Z,2.70
2022-08-08T21:33:21.660Z,2.50
2022-08-08T21:36:14.526Z,2.47
2022-08-08T21:38:37.633Z,2.63
2022-08-08T21:41:05.873Z,2.42
2022-08-08T21:43:35.033Z,2.58
2022-08-08T21:48:04.936Z,2.38
2022-08-08T21:48:55.670Z,2.20
2022-08-08T21:54:31.564Z,2.67
2022-08-08T21:54:33.387Z,2.22
2022-08-08T21:57:03.286Z,2.42
2022-08-08T22:00:02.894Z,2.20
2022-08-08T22:02:23.366Z,1.90
2022-08-08T22:04:58.609Z,2.17
2022-08-08T22:07:40.316Z,1.90
2022-08-08T22:10:18.261Z,1.80
2022-08-08T22:13:16.714Z,2.20
2022-08-08T22:15:59.320Z,2.00
2022-08-08T22:21:10.699Z,2.40
2022-08-08T22:23:50.723Z,2.00
2022-08-08T22:26:28.950Z,2.20
2022-08-08T22:29:57.183Z,2.15
2022-08-08T22:32:01.567Z,1.92
2022-08-08T22:34:31.803Z,2.60
2022-08-08T22:37:01.208Z,2.45
2022-08-08T22:39:45.583Z,2.17
2022-08-08T22:42:27.145Z,1.95
2022-08-08T22:44:56.116Z,1.90
2022-08-08T22:47:24.448Z,2.10
2022-08-08T22:50:18.236Z,2.28
2022-08-08T22:53:22.342Z,2.05
2022-08-08T22:55:57.792Z,1.90
2022-08-08T22:58:29.160Z,1.95
2022-08-08T23:00:59.848Z,2.10
2022-08-08T23:03:34.400Z,3.13
2022-08-08T23:06:17.019Z,2.00
2022-08-08T23:08:55.791Z,1.95
2022-08-08T23:11:31.093Z,2.10
2022-08-08T23:14:17.401Z,2.03
2022-08-08T23:16:54.405Z,2.05
2022-08-08T23:19:26.115Z,2.25
2022-08-08T23:21:54.184Z,2.03
2022-08-08T23:24:23.818Z,2.30
2022-08-08T23:26:53.337Z,2.47
2022-08-08T23:29:27.210Z,2.07
2022-08-08T23:31:59.420Z,2.25
2022-08-08T23:34:29.351Z,2.17
2022-08-08T23:36:59.834Z,2.25
2022-08-08T23:39:42.172Z,2.08
2022-08-08T23:42:17.386Z,2.10
2022-08-08T23:44:49.392Z,2.10
2022-08-08T23:48:59.633Z,2.35
2022-08-08T23:50:05.881Z,2.40
2022-08-08T23:52:34.372Z,2.42
2022-08-08T23:55:14.177Z,2.40
2022-08-08T23:57:52.435Z,2.40
